Time;durP1;ratioP1;P1;durP2;ratioP2;P2;SDS_P1;SDS_P2;PMS_P1;PMS_P2;Temp;Humidity;BMP_temperature;BMP_pressure;BME280_temperature;BME280_humidity;BME280_pressure;Samples;Min_cycle;Max_cycle;Signal;HPM_P1;HPM_P2
2023/08/23 00:00:14;;;;;;;16.67;11.75;;;665.90;2432.00;;;;;;5113918;28;20039;-88
2023/08/23 00:02:58;;;;;;;18.75;11.70;;;665.90;2432.00;;;;;;5114724;28;20053;-82
2023/08/23 00:05:24;;;;;;;15.25;11.30;;;665.90;2432.00;;;;;;5114307;28;20130;-82
2023/08/23 00:07:50;;;;;;;15.15;12.55;;;665.90;2432.00;;;;;;5115096;28;20066;-82
2023/08/23 00:10:16;;;;;;;17.00;12.45;;;665.90;2432.00;;;;;;5115343;28;20034;-83
2023/08/23 00:12:41;;;;;;;15.90;12.48;;;665.90;2432.00;;;;;;5114242;28;20031;-86
2023/08/23 00:15:08;;;;;;;13.63;12.23;;;665.90;2432.00;;;;;;5114987;28;20499;-86
2023/08/23 00:17:35;;;;;;;16.38;13.48;;;665.90;2432.00;;;;;;5114675;28;20036;-89
2023/08/23 00:20:19;;;;;;;16.08;13.23;;;666.00;2432.00;;;;;;5116886;28;20024;-86
2023/08/23 00:22:45;;;;;;;17.83;13.50;;;665.90;2432.00;;;;;;5115576;28;20046;-85
2023/08/23 00:25:11;;;;;;;18.08;12.85;;;666.10;2432.00;;;;;;5115424;28;20437;-87
2023/08/23 00:27:37;;;;;;;22.25;12.80;;;666.10;2432.00;;;;;;5113131;28;20075;-82
2023/08/23 00:30:03;;;;;;;17.00;12.93;;;666.10;2432.00;;;;;;5115578;28;20376;-86
2023/08/23 00:32:28;;;;;;;14.45;12.93;;;666.10;2432.00;;;;;;5116704;28;20076;-86
2023/08/23 00:34:54;;;;;;;15.88;12.63;;;666.10;2432.00;;;;;;5115251;28;20102;-88
2023/08/23 00:37:20;;;;;;;14.02;12.43;;;665.90;2432.00;;;;;;5114941;28;20019;-87
2023/08/23 00:39:45;;;;;;;20.35;12.32;;;665.90;2432.00;;;;;;5114725;28;20132;-87
2023/08/23 00:42:11;;;;;;;17.02;12.68;;;665.90;2432.00;;;;;;5113886;28;20019;-89
2023/08/23 00:44:38;;;;;;;16.40;12.77;;;665.90;2432.00;;;;;;5114122;28;20032;-85
2023/08/23 00:47:05;;;;;;;15.60;12.75;;;665.90;2432.00;;;;;;5116803;28;20492;-86
2023/08/23 00:49:34;;;;;;;16.00;12.88;;;666.00;2432.00;;;;;;5116674;28;20081;-85
2023/08/23 00:52:01;;;;;;;15.40;12.68;;;666.00;2432.00;;;;;;5116166;28;20020;-86
2023/08/23 00:54:29;;;;;;;18.45;13.60;;;666.00;2432.00;;;;;;5115123;28;20023;-88
2023/08/23 00:56:56;;;;;;;17.15;13.20;;;665.90;2432.00;;;;;;5115754;28;20020;-88
2023/08/23 00:59:22;;;;;;;18.00;13.00;;;640.90;2432.00;;;;;;5114514;28;20428;-86
2023/08/23 01:01:49;;;;;;;15.38;12.50;;;;;;;;;;5113935;28;20027;-85
2023/08/23 01:04:15;;;;;;;17.83;13.13;;;;;;;;;;5114186;28;20019;-88
2023/08/23 01:06:49;;;;;;;16.02;13.23;;;;;;;;;;5114638;28;20047;-86
2023/08/23 01:09:31;;;;;;;20.00;13.82;;;;;;;;;;5112885;28;20027;-90
2023/08/23 01:12:33;;;;;;;17.60;14.02;;;640.50;2432.00;;;;;;5116699;28;20083;-86
2023/08/23 01:15:03;;;;;;;16.27;13.37;;;;;;;;;;5111396;28;20028;-86
2023/08/23 01:17:30;;;;;;;17.38;12.63;;;;;;;;;;5112956;28;20059;-83
2023/08/23 01:19:57;;;;;;;13.23;11.73;;;;;;;;;;5112922;28;20046;-85
2023/08/23 01:22:23;;;;;;;19.45;12.43;;;;;;;;;;5114424;28;20384;-90
2023/08/23 01:24:50;;;;;;;14.43;11.90;;;;;;;;;;5114814;28;20020;-88
2023/08/23 01:27:16;;;;;;;14.25;11.13;;;;;;;;;;5114296;28;20135;-85
2023/08/23 01:29:44;;;;;;;14.50;11.77;;;;;;;;;;5115890;28;20028;-86
2023/08/23 01:32:19;;;;;;;15.27;11.80;;;;;;;;;;5117006;28;20070;-89
2023/08/23 01:35:24;;;;;;;17.92;12.40;;;;;;;;;;5116223;28;20453;-87
2023/08/23 01:37:54;;;;;;;15.93;12.43;;;;;;;;;;5017977;28;20048;-87
2023/08/23 01:40:20;;;;;;;14.68;12.15;;;;;;;;;;5034195;28;20120;-85
2023/08/23 01:42:46;;;;;;;14.88;12.63;;;;;;;;;;5033056;28;20029;-89
2023/08/23 01:45:13;;;;;;;16.63;13.23;;;;;;;;;;5033894;28;20131;-89
2023/08/23 01:47:39;;;;;;;16.10;12.40;;;;;;;;;;5033059;28;20034;-88
2023/08/23 01:50:05;;;;;;;15.75;12.60;;;;;;;;;;5031349;28;20029;-89
2023/08/23 01:52:31;;;;;;;16.35;13.48;;;;;;;;;;5030021;28;20080;-90
2023/08/23 01:54:57;;;;;;;15.40;13.02;;;;;;;;;;5030266;28;20072;-86
2023/08/23 01:57:23;;;;;;;16.00;13.38;;;;;;;;;;5031417;28;20057;-80
2023/08/23 01:59:50;;;;;;;16.40;12.73;;;;;;;;;;5035142;28;20044;-87
2023/08/23 02:02:16;;;;;;;16.38;12.88;;;;;;;;;;5035278;28;20030;-90
2023/08/23 02:04:42;;;;;;;16.88;12.98;;;;;;;;;;5035700;28;20026;-88
2023/08/23 02:07:08;;;;;;;16.02;12.85;;;;;;;;;;5037815;28;20549;-86
2023/08/23 02:09:35;;;;;;;13.75;12.35;;;;;;;;;;5115686;28;20046;-85
2023/08/23 02:12:01;;;;;;;18.73;12.60;;;;;;;;;;5119916;28;20051;-88
2023/08/23 02:14:27;;;;;;;14.88;12.88;;;;;;;;;;5119072;28;20028;-80
2023/08/23 02:16:53;;;;;;;15.43;13.07;;;;;;;;;;5118724;28;20032;-87
2023/08/23 02:19:19;;;;;;;16.58;12.98;;;;;;;;;;5118335;28;20098;-86
2023/08/23 02:21:45;;;;;;;16.83;12.50;;;;;;;;;;5116696;28;20096;-86
2023/08/23 02:24:11;;;;;;;13.90;12.40;;;;;;;;;;5118178;28;20024;-84
2023/08/23 02:26:37;;;;;;;17.02;12.82;;;;;;;;;;5117113;28;20039;-88
2023/08/23 02:29:04;;;;;;;16.75;12.50;;;;;;;;;;5119662;28;20445;-89
2023/08/23 02:31:31;;;;;;;18.20;13.25;;;;;;;;;;5122213;28;20076;-89
2023/08/23 02:33:59;;;;;;;15.45;12.55;;;;;;;;;;5121494;28;20046;-91
2023/08/23 02:36:25;;;;;;;16.33;12.60;;;;;;;;;;5119606;28;20019;-89
2023/08/23 02:38:52;;;;;;;16.45;12.65;;;;;;;;;;5117917;28;20495;-89
2023/08/23 02:41:18;;;;;;;17.33;13.10;;;;;;;;;;5119134;28;20031;-89
2023/08/23 02:43:44;;;;;;;15.77;12.18;;;;;;;;;;5119432;28;20484;-87
2023/08/23 02:46:11;;;;;;;15.20;12.55;;;;;;;;;;5120529;28;20056;-90
2023/08/23 02:48:37;;;;;;;16.17;12.70;;;;;;;;;;5123376;28;20028;-90
2023/08/23 02:51:04;;;;;;;17.88;12.57;;;;;;;;;;5119423;28;20088;-91
2023/08/23 02:53:33;;;;;;;16.08;12.27;;;;;;;;;;5118284;28;20026;-89
2023/08/23 02:55:59;;;;;;;12.90;11.55;;;;;;;;;;5099294;28;20039;-86
2023/08/23 02:58:25;;;;;;;14.85;12.10;;;;;;;;;;5084505;28;20024;-80
2023/08/23 03:00:51;;;;;;;17.55;12.48;;;;;;;;;;5096012;28;20027;-79
2023/08/23 03:03:17;;;;;;;16.52;12.40;;;;;;;;;;5094517;28;20044;-80
2023/08/23 03:05:49;;;;;;;17.00;12.45;;;;;;;;;;5093435;28;20100;-79
2023/08/23 03:08:15;;;;;;;14.40;12.27;;;;;;;;;;5094732;28;20022;-80
2023/08/23 03:10:41;;;;;;;15.30;12.52;;;;;;;;;;5094628;28;20162;-81
2023/08/23 03:13:07;;;;;;;15.15;12.90;;;;;;;;;;5093321;28;20032;-80
2023/08/23 03:15:33;;;;;;;17.98;12.73;;;;;;;;;;5094493;28;20024;-80
2023/08/23 03:17:59;;;;;;;14.73;12.02;;;;;;;;;;5094587;28;20020;-81
2023/08/23 03:20:25;;;;;;;17.05;12.32;;;;;;;;;;5094972;28;20097;-80
2023/08/23 03:22:51;;;;;;;17.85;13.73;;;;;;;;;;5096341;28;20012;-83
2023/08/23 03:25:17;;;;;;;16.58;13.20;;;;;;;;;;5096109;28;20034;-81
2023/08/23 03:27:43;;;;;;;19.30;12.50;;;;;;;;;;5094510;28;20421;-79
2023/08/23 03:30:10;;;;;;;18.95;12.45;;;;;;;;;;5094132;28;20481;-80
2023/08/23 03:32:36;;;;;;;15.38;13.13;;;;;;;;;;5095029;28;20482;-80
2023/08/23 03:35:02;;;;;;;15.13;12.18;;;;;;;;;;5095755;28;20032;-80
2023/08/23 03:37:34;;;;;;;20.38;12.75;;;;;;;;;;5096117;28;20028;-81
2023/08/23 03:40:00;;;;;;;19.83;12.73;;;;;;;;;;5096501;28;20423;-81
2023/08/23 03:42:26;;;;;;;19.15;12.50;;;;;;;;;;5094241;28;20569;-83
2023/08/23 03:44:52;;;;;;;22.60;13.25;;;;;;;;;;5094331;28;20060;-81
2023/08/23 03:47:18;;;;;;;20.02;13.52;;;;;;;;;;5095618;28;20028;-79
2023/08/23 03:49:44;;;;;;;20.17;13.07;;;;;;;;;;5095773;28;20546;-80
2023/08/23 03:52:11;;;;;;;20.40;13.00;;;;;;;;;;5094414;28;20123;-80
2023/08/23 03:54:37;;;;;;;18.88;12.85;;;;;;;;;;5095984;28;20020;-82
2023/08/23 03:57:03;;;;;;;19.83;13.32;;;;;;;;;;5095655;28;20039;-79
2023/08/23 03:59:29;;;;;;;15.55;12.23;;;;;;;;;;5095352;28;20031;-80
2023/08/23 04:01:58;;;;;;;18.73;12.93;;;;;;;;;;5095930;28;20056;-81
2023/08/23 04:04:43;;;;;;;18.83;13.27;;;;;;;;;;5095312;28;20020;-81
2023/08/23 04:07:12;;;;;;;;;;;;;;;;;;5095973;28;20036;-80
2023/08/23 04:09:38;;;;;;;21.67;11.60;;;;;;;;;;5095048;28;19904;-81
2023/08/23 04:12:04;;;;;;;17.05;11.95;;;;;;;;;;5095284;28;20089;-80
2023/08/23 04:14:30;;;;;;;18.08;11.77;;;;;;;;;;5095060;28;20024;-80
2023/08/23 04:16:56;;;;;;;16.60;12.57;;;;;;;;;;5093475;28;20032;-81
2023/08/23 04:19:22;;;;;;;18.65;13.10;;;;;;;;;;5093482;28;20034;-80
2023/08/23 04:21:48;;;;;;;20.58;13.68;;;;;;;;;;5093284;28;20120;-81
2023/08/23 04:24:17;;;;;;;23.55;13.15;;;;;;;;;;5095556;28;20032;-80
2023/08/23 04:26:43;;;;;;;20.13;12.95;;;;;;;;;;5095657;28;20082;-79
2023/08/23 04:29:09;;;;;;;20.92;12.90;;;;;;;;;;5095648;28;20082;-79
2023/08/23 04:31:35;;;;;;;16.15;12.60;;;;;;;;;;5097426;28;20021;-80
2023/08/23 04:34:04;;;;;;;18.05;13.30;;;;;;;;;;5094517;28;20080;-80
2023/08/23 04:36:32;;;;;;;16.30;12.50;;;;;;;;;;5095867;28;20028;-80
2023/08/23 04:38:58;;;;;;;17.38;11.93;;;;;;;;;;5095197;28;20024;-84
2023/08/23 04:41:24;;;;;;;19.42;13.00;;;;;;;;;;5095126;28;20040;-80
2023/08/23 04:43:50;;;;;;;20.90;13.52;;;;;;;;;;5096463;28;20453;-80
2023/08/23 04:46:16;;;;;;;27.02;18.20;;;;;;;;;;5096735;28;20035;-80
2023/08/23 04:48:42;;;;;;;26.90;19.58;;;;;;;;;;5095671;28;20090;-79
2023/08/23 04:51:09;;;;;;;23.50;17.23;;;;;;;;;;5097014;28;20081;-80
2023/08/23 04:53:36;;;;;;;24.77;16.80;;;;;;;;;;5094068;28;20027;-80
2023/08/23 04:56:02;;;;;;;25.17;16.50;;;;;;;;;;5094675;28;20028;-79
2023/08/23 04:58:31;;;;;;;18.17;14.50;;;;;;;;;;5094547;28;20107;-80
2023/08/23 05:01:05;;;;;;;22.65;13.55;;;;;;;;;;5092916;28;20127;-81
2023/08/23 05:03:31;;;;;;;23.02;14.05;;;;;;;;;;5093958;28;20408;-80
2023/08/23 05:06:01;;;;;;;21.65;14.40;;;;;;;;;;5093153;28;20119;-81
2023/08/23 05:08:28;;;;;;;22.25;15.02;;;;;;;;;;5096541;28;20038;-81
2023/08/23 05:10:54;;;;;;;20.73;15.25;;;;;;;;;;5098365;28;20081;-85
2023/08/23 05:13:21;;;;;;;21.48;14.13;;;;;;;;;;5095289;28;20502;-81
2023/08/23 05:15:56;;;;;;;26.75;14.13;;;;;;;;;;5097194;28;20020;-82
2023/08/23 05:18:22;;;;;;;26.02;13.80;;;;;;;;;;5096977;28;20381;-83
2023/08/23 05:20:53;;;;;;;17.73;14.07;;;;;;;;;;5097685;28;20023;-81
2023/08/23 05:23:19;;;;;;;20.90;13.23;;;;;;;;;;5097725;28;20428;-81
2023/08/23 05:25:45;;;;;;;20.45;13.60;;;;;;;;;;5097934;28;20367;-80
2023/08/23 05:28:11;;;;;;;22.33;13.77;;;;;;;;;;5099619;28;20028;-81
2023/08/23 05:30:39;;;;;;;20.48;13.00;;;;;;;;;;5099609;28;20050;-80
2023/08/23 05:33:06;;;;;;;14.98;12.48;;;;;;;;;;5101878;28;20035;-81
2023/08/23 05:35:32;;;;;;;14.88;12.52;;;;;;;;;;5108429;28;20053;-79
2023/08/23 05:37:59;;;;;;;18.70;13.70;;;;;;;;;;5113181;28;20050;-83
2023/08/23 05:40:25;;;;;;;17.38;12.65;;;;;;;;;;5110769;28;20036;-83
2023/08/23 05:42:51;;;;;;;16.60;12.90;;;;;;;;;;5113403;28;20085;-83
2023/08/23 05:45:17;;;;;;;16.65;12.65;;;;;;;;;;5113221;28;20084;-81
2023/08/23 05:47:43;;;;;;;16.65;13.57;;;;;;;;;;5113330;28;20040;-81
2023/08/23 05:50:10;;;;;;;18.42;14.00;;;;;;;;;;5113828;28;20044;-87
2023/08/23 05:52:37;;;;;;;19.48;14.23;;;;;;;;;;5113390;28;20050;-85
2023/08/23 05:55:07;;;;;;;17.95;13.93;;;;;;;;;;5114931;28;20066;-84
2023/08/23 05:57:34;;;;;;;19.02;14.60;;;;;;;;;;5116033;28;20039;-83
2023/08/23 06:00:00;;;;;;;19.85;13.95;;;;;;;;;;5114685;28;20024;-82
2023/08/23 06:02:26;;;;;;;17.75;13.43;;;;;;;;;;5112944;28;20048;-84
2023/08/23 06:04:52;;;;;;;20.70;14.52;;;;;;;;;;5109620;28;20032;-87
2023/08/23 06:07:19;;;;;;;17.27;14.25;;;;;;;;;;5113988;28;20028;-84
2023/08/23 06:09:46;;;;;;;17.00;13.80;;;;;;;;;;5113877;28;20033;-91
2023/08/23 06:12:12;;;;;;;19.38;14.88;;;;;;;;;;5115800;28;20028;-85
2023/08/23 06:14:38;;;;;;;20.08;15.23;;;;;;;;;;5111892;28;20028;-88
2023/08/23 06:17:04;;;;;;;17.13;13.90;;;;;;;;;;5113033;28;20036;-89
2023/08/23 06:19:31;;;;;;;23.52;14.55;;;;;;;;;;5112241;28;20028;-88
2023/08/23 06:21:57;;;;;;;20.38;14.60;;;;;;;;;;5115143;28;20028;-86
2023/08/23 06:24:23;;;;;;;23.63;15.15;;;;;;;;;;5115328;28;20127;-81
2023/08/23 06:26:50;;;;;;;19.38;14.70;;;;;;;;;;5114444;28;20100;-83
2023/08/23 06:29:18;;;;;;;17.70;13.95;;;;;;;;;;5112523;28;20181;-89
2023/08/23 06:31:44;;;;;;;18.13;14.20;;;;;;;;;;5110550;28;20389;-84
2023/08/23 06:37:27;;;;;;;19.63;13.95;;;;;;;;;;5112540;28;20031;-88
2023/08/23 06:39:53;;;;;;;20.48;13.80;;;;;;;;;;5110022;28;20032;-87
2023/08/23 06:42:19;;;;;;;18.20;13.40;;;;;;;;;;5110833;28;20032;-90
2023/08/23 06:44:46;;;;;;;19.00;13.93;;;;;;;;;;5108282;28;20024;-89
2023/08/23 06:47:13;;;;;;;18.42;12.95;;;;;;;;;;5106784;28;20473;-82
2023/08/23 06:49:39;;;;;;;16.40;13.25;;;;;;;;;;5108695;28;20034;-89
2023/08/23 06:52:07;;;;;;;17.98;12.57;;;;;;;;;;5110965;28;20036;-88
2023/08/23 06:54:33;;;;;;;14.85;11.63;;;;;;;;;;5112144;28;20023;-86
2023/08/23 06:56:59;;;;;;;14.10;11.73;;;;;;;;;;5111509;28;20028;-82
2023/08/23 06:59:25;;;;;;;15.50;11.57;;;;;;;;;;5111220;28;20104;-82
2023/08/23 07:01:51;;;;;;;18.20;11.40;;;742.90;2432.00;;;;;;5102237;28;20031;-81
2023/08/23 07:04:16;;;;;;;16.08;11.55;;;743.00;2432.00;;;;;;5102438;28;20024;-80
2023/08/23 07:06:42;;;;;;;15.27;11.18;;;743.20;2432.00;;;;;;5101680;28;20051;-81
2023/08/23 07:09:08;;;;;;;15.25;11.13;;;;;;;;;;5097616;28;20051;-82
2023/08/23 07:11:35;;;;;;;13.52;10.15;;;;;;;;;;5095492;28;20036;-82
2023/08/23 07:14:01;;;;;;;16.52;10.98;;;;;;;;;;5096630;28;20107;-81
2023/08/23 07:16:27;;;;;;;15.85;10.95;;;;;;;;;;5096660;28;20024;-80
2023/08/23 07:18:52;;;;;;;13.15;11.05;;;768.70;2432.00;;;;;;5097070;28;20021;-81
2023/08/23 07:21:18;;;;;;;14.55;10.95;;;768.80;2432.00;;;;;;5098119;28;20477;-83
2023/08/23 07:23:44;;;;;;;14.57;10.75;;;;;;;;;;5095935;28;20020;-81
2023/08/23 07:26:10;;;;;;;14.23;9.70;;;;;;;;;;5096159;28;20051;-82
2023/08/23 07:28:36;;;;;;;14.45;10.32;;;794.40;2432.00;;;;;;5096157;28;20120;-83
2023/08/23 07:31:02;;;;;;;14.18;10.15;;;794.20;2432.00;;;;;;5099302;28;20115;-82
2023/08/23 07:33:47;;;;;;;13.65;9.65;;;;;;;;;;5099295;28;20561;-83
2023/08/23 07:36:14;;;;;;;14.13;9.95;;;;;;;;;;5098734;28;20466;-85
2023/08/23 07:38:39;;;;;;;14.88;9.50;;;820.00;2432.00;;;;;;5098130;28;20028;-79
2023/08/23 07:41:05;;;;;;;14.18;9.52;;;;;;;;;;5096969;28;20091;-79
2023/08/23 07:43:32;;;;;;;13.82;9.25;;;845.20;2304.00;;;;;;5095642;28;20043;-82
2023/08/23 07:46:00;;;;;;;13.23;8.38;;;;;;;;;;5096049;28;20028;-82
2023/08/23 07:48:28;;;;;;;11.48;9.30;;;;;;;;;;5095936;28;20108;-87
2023/08/23 07:51:01;;;;;;;13.40;9.27;;;;;;;;;;5094298;28;20473;-87
2023/08/23 07:53:28;;;;;;;12.55;8.70;;;;;;;;;;5093671;28;20048;-84
2023/08/23 07:55:54;;;;;;;10.68;8.95;;;;;;;;;;5093389;28;20465;-84
2023/08/23 07:58:20;;;;;;;11.93;9.27;;;;;;;;;;5093580;28;20032;-81
2023/08/23 08:00:46;;;;;;;11.45;8.85;;;;;;;;;;5095038;28;20457;-83
2023/08/23 08:03:12;;;;;;;10.85;8.95;;;;;;;;;;5094512;28;20031;-82
2023/08/23 08:05:38;;;;;;;11.57;8.48;;;;;;;;;;5095624;28;20035;-83
2023/08/23 08:08:05;;;;;;;10.40;8.85;;;;;;;;;;5094279;28;20127;-88
2023/08/23 08:10:31;;;;;;;12.65;8.93;;;;;;;;;;5094134;28;20027;-81
2023/08/23 08:13:01;;;;;;;12.15;8.68;;;;;;;;;;5093615;28;20030;-84
2023/08/23 08:15:27;;;;;;;12.68;8.63;;;;;;;;;;5094404;28;20028;-84
2023/08/23 08:17:53;;;;;;;10.57;8.02;;;;;;;;;;5095795;28;20032;-82
2023/08/23 08:20:20;;;;;;;9.98;8.48;;;896.80;1792.00;;;;;;5095496;28;20020;-86
2023/08/23 08:22:46;;;;;;;9.80;8.40;;;896.60;1792.00;;;;;;5094553;28;20028;-91
2023/08/23 08:25:13;;;;;;;10.68;8.27;;;896.90;1766.40;;;;;;5095161;28;20024;-84
2023/08/23 08:27:39;;;;;;;9.77;7.60;;;896.80;1766.40;;;;;;5094690;28;20052;-81
2023/08/23 08:30:06;;;;;;;8.82;7.90;;;896.80;1715.20;;;;;;5095294;28;20020;-81
2023/08/23 08:32:32;;;;;;;9.98;7.70;;;896.80;1715.20;;;;;;5094850;28;20035;-83
2023/08/23 08:34:58;;;;;;;11.82;8.95;;;;;;;;;;5095402;28;20020;-83
2023/08/23 08:37:25;;;;;;;17.48;10.90;;;;;;;;;;5093081;28;20059;-83
2023/08/23 08:39:52;;;;;;;13.73;11.40;;;;;;;;;;5093086;28;20028;-85
2023/08/23 08:42:18;;;;;;;12.13;10.25;;;;;;;;;;5094986;28;20035;-85
2023/08/23 08:44:45;;;;;;;13.57;10.15;;;;;;;;;;5095000;28;20031;-86
2023/08/23 08:47:13;;;;;;;14.13;10.35;;;;;;;;;;5094432;28;20036;-84
2023/08/23 08:49:40;;;;;;;13.18;10.35;;;;;;;;;;5094926;28;20024;-88
2023/08/23 08:52:11;;;;;;;11.48;10.25;;;922.30;1868.80;;;;;;5093995;28;20461;-87
2023/08/23 08:54:39;;;;;;;15.23;10.90;;;922.00;1868.80;;;;;;5094706;28;20028;-82
2023/08/23 08:57:05;;;;;;;12.50;10.30;;;;;;;;;;5094708;28;20066;-82
2023/08/23 08:59:32;;;;;;;12.82;9.98;;;921.80;1843.20;;;;;;5093894;28;20024;-81
2023/08/23 09:01:58;;;;;;;12.32;10.30;;;921.70;1894.40;;;;;;5093055;28;20020;-80
2023/08/23 09:04:24;;;;;;;10.82;9.68;;;;;;;;;;5092284;28;20067;-81
2023/08/23 09:06:51;;;;;;;11.10;9.82;;;;;;;;;;5093207;28;20381;-84
2023/08/23 09:09:17;;;;;;;13.57;9.95;;;;;;;;;;5094276;28;20028;-81
2023/08/23 09:11:43;;;;;;;12.65;9.30;;;922.10;1868.80;;;;;;5094829;28;20677;-83
2023/08/23 09:14:20;;;;;;;12.40;9.25;;;922.50;1792.00;;;;;;5094301;28;20024;-87
2023/08/23 09:16:50;;;;;;;12.77;9.70;;;;;;;;;;5092424;28;20040;-81
2023/08/23 09:19:16;;;;;;;14.00;9.35;;;;;;;;;;5094859;28;20024;-84
2023/08/23 09:21:46;;;;;;;13.95;9.00;;;;;;;;;;5092526;28;20102;-84
2023/08/23 09:24:13;;;;;;;10.18;9.18;;;;;;;;;;5091503;28;20024;-82
2023/08/23 09:26:39;;;;;;;11.50;9.13;;;;;;;;;;5092174;28;20044;-80
2023/08/23 09:29:07;;;;;;;12.13;8.77;;;947.30;1766.40;;;;;;5093408;28;20044;-80
2023/08/23 09:31:33;;;;;;;12.15;9.10;;;947.40;1715.20;;;;;;5092641;28;20046;-80
2023/08/23 09:34:00;;;;;;;10.68;8.77;;;948.00;1715.20;;;;;;5093087;28;20110;-80
2023/08/23 09:36:27;;;;;;;10.38;8.15;;;;;;;;;;5093169;28;20107;-81
2023/08/23 09:38:54;;;;;;;10.13;9.13;;;947.80;1664.00;;;;;;5093867;28;20024;-86
2023/08/23 09:41:21;;;;;;;8.93;8.02;;;922.40;1740.80;;;;;;5093635;28;20452;-86
2023/08/23 09:43:51;;;;;;;10.57;7.90;;;947.70;1689.60;;;;;;5094613;28;20050;-84
2023/08/23 09:46:19;;;;;;;12.05;8.20;;;972.80;1664.00;;;;;;5094779;28;20036;-87
2023/08/23 09:48:46;;;;;;;10.35;8.07;;;;;;;;;;5095112;28;20129;-86
2023/08/23 09:51:13;;;;;;;10.75;8.40;;;;;;;;;;5093754;28;20034;-85
2023/08/23 09:53:41;;;;;;;12.52;9.35;;;;;;;;;;5094920;28;20020;-88
2023/08/23 09:56:07;;;;;;;10.38;8.82;;;;;;;;;;5093256;28;20031;-84
2023/08/23 09:58:33;;;;;;;9.32;8.43;;;;;;;;;;5094525;28;20155;-85
2023/08/23 10:01:00;;;;;;;9.32;8.30;;;;;;;;;;5094516;28;20033;-86
2023/08/23 10:03:39;;;;;;;10.77;8.75;;;973.30;1612.80;;;;;;5093029;28;20051;-86
2023/08/23 10:06:06;;;;;;;13.95;8.20;;;;;;;;;;5094872;28;20092;-84
2023/08/23 10:08:34;;;;;;;12.40;8.30;;;;;;;;;;5095132;28;20048;-88
2023/08/23 10:11:00;;;;;;;10.05;8.07;;;;;;;;;;5094167;28;20135;-87
2023/08/23 10:13:26;;;;;;;12.43;8.65;;;;;;;;;;5092812;28;20119;-84
2023/08/23 10:15:54;;;;;;;9.05;8.15;;;;;;;;;;5093935;28;20493;-89
2023/08/23 10:18:21;;;;;;;8.52;7.63;;;;;;;;;;5093722;28;20028;-86
2023/08/23 10:20:47;;;;;;;10.32;8.52;;;;;;;;;;5098732;28;20024;-87
2023/08/23 10:23:17;;;;;;;9.55;8.20;;;;;;;;;;5096866;28;20028;-84
2023/08/23 10:25:44;;;;;;;13.85;8.40;;;;;;;;;;5096916;28;20036;-84
2023/08/23 10:28:12;;;;;;;9.38;7.78;;;;;;;;;;5097714;28;20044;-85
2023/08/23 10:30:41;;;;;;;10.70;8.05;;;;;;;;;;5098178;28;20028;-87
2023/08/23 10:33:08;;;;;;;12.68;8.15;;;;;;;;;;5097933;28;20024;-87
2023/08/23 10:35:36;;;;;;;10.10;7.80;;;;;;;;;;5098131;28;20035;-88
2023/08/23 10:38:03;;;;;;;10.60;8.10;;;;;;;;;;5098055;28;20022;-87
2023/08/23 10:40:31;;;;;;;9.25;8.35;;;;;;;;;;5097553;28;20111;-85
2023/08/23 10:42:57;;;;;;;8.10;7.28;;;;;;;;;;5097892;28;20024;-87
2023/08/23 10:45:23;;;;;;;10.07;7.75;;;;;;;;;;5097769;28;20036;-86
2023/08/23 10:47:53;;;;;;;8.23;7.28;;;;;;;;;;5096819;28;20028;-85
2023/08/23 10:50:19;;;;;;;9.50;7.13;;;;;;;;;;5097548;28;20070;-85
2023/08/23 10:52:49;;;;;;;8.50;6.97;;;;;;;;;;5095755;28;20065;-89
2023/08/23 10:55:15;;;;;;;8.90;7.40;;;;;;;;;;5095095;28;20039;-86
2023/08/23 10:57:41;;;;;;;9.13;7.28;;;;;;;;;;5096781;28;20090;-88
2023/08/23 11:00:08;;;;;;;8.35;7.30;;;;;;;;;;5095102;28;20500;-80
2023/08/23 11:02:34;;;;;;;11.00;7.13;;;;;;;;;;5095897;28;20135;-81
2023/08/23 11:05:00;;;;;;;8.82;7.30;;;;;;;;;;5096442;28;20456;-80
2023/08/23 11:07:28;;;;;;;8.25;7.20;;;;;;;;;;5095808;28;20084;-81
2023/08/23 11:09:54;;;;;;;7.97;7.18;;;;;;;;;;5095967;28;20028;-83
2023/08/23 11:12:20;;;;;;;8.02;7.25;;;;;;;;;;5094634;28;20028;-80
2023/08/23 11:14:47;;;;;;;12.02;7.00;;;;;;;;;;5095564;28;20016;-81
2023/08/23 11:17:13;;;;;;;8.32;7.03;;;;;;;;;;5095788;28;20047;-86
2023/08/23 11:19:39;;;;;;;9.43;6.65;;;;;;;;;;5093926;28;20047;-80
2023/08/23 11:22:08;;;;;;;8.85;6.95;;;;;;;;;;5094369;28;20040;-82
2023/08/23 11:24:38;;;;;;;8.63;7.10;;;;;;;;;;5095061;28;20048;-80
2023/08/23 11:27:14;;;;;;;8.98;7.32;;;;;;;;;;5095681;28;20056;-82
2023/08/23 11:29:42;;;;;;;10.10;7.03;;;;;;;;;;5096008;28;20030;-81
2023/08/23 11:32:08;;;;;;;10.95;7.35;;;;;;;;;;5096037;28;20112;-80
2023/08/23 11:34:34;;;;;;;9.70;7.20;;;;;;;;;;5096198;28;20108;-85
2023/08/23 11:37:06;;;;;;;7.45;6.55;;;;;;;;;;5096099;28;20081;-80
2023/08/23 11:39:32;;;;;;;8.00;7.20;;;;;;;;;;5094754;28;20505;-85
2023/08/23 11:42:00;;;;;;;8.25;7.07;;;;;;;;;;5094028;28;20461;-82
2023/08/23 11:44:29;;;;;;;8.20;6.97;;;;;;;;;;5095169;28;20024;-80
2023/08/23 11:46:56;;;;;;;8.68;7.10;;;;;;;;;;5095973;28;20481;-84
2023/08/23 11:49:23;;;;;;;7.50;6.40;;;;;;;;;;5095699;28;20028;-80
2023/08/23 11:51:50;;;;;;;12.23;6.68;;;;;;;;;;5094936;28;20169;-80
2023/08/23 11:54:17;;;;;;;7.25;6.55;;;998.70;1433.60;;;;;;5093900;28;20614;-80
2023/08/23 11:56:44;;;;;;;8.45;6.80;;;;;;;;;;5095245;28;20103;-80
2023/08/23 11:59:11;;;;;;;10.05;7.50;;;;;;;;;;5094490;28;20027;-80
2023/08/23 12:01:43;;;;;;;10.35;7.43;;;;;;;;;;5095039;28;20023;-80
2023/08/23 12:04:12;;;;;;;8.00;7.20;;;973.50;1382.40;;;;;;5094895;28;20020;-80
2023/08/23 12:06:39;;;;;;;10.02;8.30;;;973.50;1382.40;;;;;;5094027;28;20036;-80
2023/08/23 12:09:05;;;;;;;9.52;7.35;;;973.40;1382.40;;;;;;5094298;28;20024;-86
2023/08/23 12:11:34;;;;;;;10.98;7.32;;;973.50;1382.40;;;;;;5095978;28;20032;-86
2023/08/23 12:14:03;;;;;;;11.18;8.07;;;973.70;1408.00;;;;;;5096333;28;20457;-85
2023/08/23 12:16:31;;;;;;;8.88;6.50;;;998.40;1382.40;;;;;;5095844;28;20028;-86
2023/08/23 12:18:58;;;;;;;7.72;6.93;;;973.60;1356.80;;;;;;5096411;28;20044;-88
2023/08/23 12:21:24;;;;;;;9.35;6.78;;;973.50;1356.80;;;;;;5096234;28;20081;-86
2023/08/23 12:23:50;;;;;;;8.57;6.30;;;;;;;;;;5094633;28;20032;-87
2023/08/23 12:26:25;;;;;;;9.73;6.55;;;;;;;;;;5094554;28;20048;-84
2023/08/23 12:28:52;;;;;;;8.27;6.18;;;998.40;1382.40;;;;;;5094681;28;20046;-87
2023/08/23 12:31:21;;;;;;;7.57;6.30;;;973.50;1356.80;;;;;;5095169;28;20021;-86
2023/08/23 12:36:52;;;;;;;7.72;6.38;;;;;;;;;;5096273;28;20031;-86
2023/08/23 12:39:19;;;;;;;8.82;6.20;;;;;;;;;;5095272;28;20045;-86
2023/08/23 12:41:45;;;;;;;7.20;6.35;;;;;;;;;;5093108;28;20484;-81
2023/08/23 12:44:11;;;;;;;6.90;6.20;;;;;;;;;;5095908;28;20036;-88
2023/08/23 12:46:39;;;;;;;9.13;6.30;;;;;;;;;;5094121;28;20048;-86
2023/08/23 12:49:12;;;;;;;6.60;6.00;;;998.70;1331.20;;;;;;5092975;28;20036;-88
2023/08/23 12:51:38;;;;;;;7.07;6.47;;;;;;;;;;5095257;28;20032;-84
2023/08/23 12:54:04;;;;;;;8.27;6.40;;;;;;;;;;5095468;28;20024;-84
2023/08/23 12:56:30;;;;;;;8.15;6.28;;;;;;;;;;5095172;28;20027;-82
2023/08/23 12:58:58;;;;;;;9.68;6.05;;;;;;;;;;5095255;28;20045;-82
2023/08/23 13:01:24;;;;;;;7.32;6.18;;;;;;;;;;5094102;28;20051;-86
2023/08/23 13:03:50;;;;;;;8.68;5.90;;;;;;;;;;5094125;28;20388;-83
2023/08/23 13:06:20;;;;;;;6.82;6.13;;;;;;;;;;5094585;28;20040;-86
2023/08/23 13:08:46;;;;;;;8.40;6.60;;;;;;;;;;5094922;28;20016;-89
2023/08/23 13:11:12;;;;;;;8.68;6.50;;;;;;;;;;5094421;28;20031;-87
2023/08/23 13:13:42;;;;;;;7.28;6.32;;;;;;;;;;5095712;28;20021;-85
2023/08/23 13:16:08;;;;;;;7.00;6.30;;;;;;;;;;5095031;28;20020;-86
2023/08/23 13:18:49;;;;;;;8.30;6.00;;;;;;;;;;5095058;28;20055;-88
2023/08/23 13:21:15;;;;;;;6.72;5.65;;;;;;;;;;5093967;28;20032;-86
2023/08/23 13:23:41;;;;;;;5.93;5.32;;;998.80;1305.60;;;;;;5093661;28;20032;-89
2023/08/23 13:26:08;;;;;;;7.00;5.53;;;998.70;1280.00;;;;;;5094430;28;20028;-84
2023/08/23 13:28:34;;;;;;;6.68;5.60;;;;;;;;;;5094855;28;20036;-87
2023/08/23 13:31:00;;;;;;;7.50;5.38;;;;;;;;;;5093959;28;20032;-88
2023/08/23 13:33:27;;;;;;;6.45;5.60;;;;;;;;;;5095788;28;20448;-87
2023/08/23 13:39:16;;;;;;;5.43;4.90;;;;;;;;;;5095462;28;20035;-90
2023/08/23 13:41:42;;;;;;;6.55;5.15;;;;;;;;;;5095680;28;20025;-84
2023/08/23 13:44:07;;;;;;;8.30;5.07;;;999.20;1177.60;;;;;;5094251;28;20032;-88
2023/08/23 13:46:33;;;;;;;6.68;5.20;;;999.00;1228.80;;;;;;5094650;28;20084;-86
2023/08/23 13:48:58;;;;;;;7.63;5.43;;;1024.00;1228.80;;;;;;5093749;28;20466;-87
2023/08/23 13:51:25;;;;;;;7.63;5.43;;;;;;;;;;5094895;28;20077;-87
2023/08/23 13:53:51;;;;;;;7.57;5.65;;;;;;;;;;5096250;28;20061;-86
2023/08/23 13:56:17;;;;;;;5.90;5.28;;;998.70;1177.60;;;;;;5098718;28;20020;-83
2023/08/23 13:58:43;;;;;;;6.68;5.40;;;998.60;1228.80;;;;;;5099603;28;20084;-86
2023/08/23 14:01:08;;;;;;;8.98;5.70;;;998.70;1254.40;;;;;;5099298;28;20024;-90